Camp Williams, Utah
Current Conditions -  °F | °C
As of 8:53 PM on Friday 24 Oct 2014 (Local Time) from KSLC Reporting Station
Clear Clear  
Wind Chill: 56°   Ceiling: Unl
Heat Index: 56°   Visibility: 10mi
Dew Point: 39°   Wind: 5mph
Humidity: 53%   Direction: 170°S
Pressure: 30.08"   Gusts: NA
Location:  40.5353°N, 111.962°W
Report Text: KSLC 250253Z 17004KT 10SM CLR 13/04 A3008 RMK AO2 SLP164 T01330039 56002
Loading
Personal Weather Stations






























Interactive Weather Map
Tropical Storm Tracking
New forecast layout! Learn more

10-Day Weather Forecast

Advertisements
Track Severe Weather on mobile